Terminal Aerodrome Forecast
Issued by NWS

Home | Current Version | Previous Version | Text Only | Print | Product List | Glossary On
Versions: 1 2 3 4 5 6 7 8 9 10 11 12 13 14 15 16 17 18 19 20 21 22 23 24 25 26 27 28 29 30
019
FTUS43 KLOT 181510 AAA
TAFDPA
TAF AMD
KDPA 181510Z 1815/1912 26009KT 1SM BR OVC003
     FM181700 24010KT 4SM BR SCT004 OVC006
     FM182000 22012KT P6SM FEW007 SCT010
     FM182100 22012G17KT P6SM SCT015 SCT250
     FM190000 22006KT P6SM FEW010 SCT250
     FM190900 19005KT 3SM BR FEW007 SCT250=

USA.gov is the U.S. government's official web portal to all federal, state and local government web resources and services.